createdAt,value
2023-05-16T00:00:07.417Z,101630.94
2023-05-16T00:05:14.438Z,101632.56
2023-05-16T00:10:16.168Z,101628.22
2023-05-16T00:15:18.363Z,101632.09
2023-05-16T00:20:23.573Z,101636.41
2023-05-16T00:25:28.701Z,101626.72
2023-05-16T00:30:30.509Z,101635.94
2023-05-16T00:35:34.774Z,101635.41
2023-05-16T00:40:36.742Z,101639.91
2023-05-16T00:45:38.732Z,101637.72
2023-05-16T00:50:40.798Z,101629.34
2023-05-16T00:55:44.798Z,101634.09
2023-05-16T01:00:48.767Z,101607.84
2023-05-16T01:05:57.539Z,101619.84
2023-05-16T01:11:30.782Z,101635.03
2023-05-16T01:17:03.805Z,101634.84
2023-05-16T01:22:16.464Z,101640.31
2023-05-16T01:27:18.652Z,101643.59
2023-05-16T01:32:21.239Z,101647.59
2023-05-16T01:37:36.025Z,101631.06
2023-05-16T01:42:44.334Z,101638.78
2023-05-16T01:47:49.256Z,101639.97
2023-05-16T01:52:57.916Z,101655.00
2023-05-16T01:58:04.835Z,101636.25
2023-05-16T02:03:08.293Z,101644.00
2023-05-16T02:08:10.106Z,101650.94
2023-05-16T02:13:11.751Z,101651.97
2023-05-16T02:18:13.511Z,101648.59
2023-05-16T02:23:17.985Z,101647.91
2023-05-16T02:28:21.925Z,101658.09
2023-05-16T02:33:27.709Z,101649.28
2023-05-16T02:38:29.555Z,101664.34
2023-05-16T02:43:31.277Z,101671.81
2023-05-16T02:48:32.903Z,101667.81
2023-05-16T02:53:36.995Z,101664.75
2023-05-16T02:58:38.835Z,101663.09
2023-05-16T03:03:41.217Z,101680.53
2023-05-16T03:08:43.348Z,101686.84
2023-05-16T03:13:45.020Z,101683.78
2023-05-16T03:18:49.286Z,101691.22
2023-05-16T03:23:50.997Z,101688.41
2023-05-16T03:28:52.728Z,101692.75
2023-05-16T03:33:56.710Z,101686.47
2023-05-16T03:39:01.737Z,101697.38
2023-05-16T03:44:06.028Z,101694.94
2023-05-16T03:49:07.732Z,101702.53
2023-05-16T03:54:09.461Z,101701.84
2023-05-16T03:59:15.937Z,101700.03
2023-05-16T04:04:19.923Z,101701.16
2023-05-16T04:09:23.767Z,101711.66
2023-05-16T04:14:25.497Z,101711.97
2023-05-16T04:19:27.218Z,101708.16
2023-05-16T04:24:31.154Z,101718.81
2023-05-16T04:29:35.900Z,101725.69
2023-05-16T04:34:40.599Z,101733.28
2023-05-16T04:39:42.849Z,101741.03
2023-05-16T04:44:44.811Z,101734.47
2023-05-16T04:49:49.049Z,101744.13
2023-05-16T04:54:53.658Z,101747.56
2023-05-16T04:59:55.772Z,101753.81
2023-05-16T05:04:59.706Z,101740.13
2023-05-16T05:10:03.626Z,101739.13
2023-05-16T05:15:06.510Z,101740.38
2023-05-16T05:20:11.597Z,101746.13
2023-05-16T05:25:18.496Z,101744.69
2023-05-16T05:30:20.225Z,101753.81
2023-05-16T05:35:23.960Z,101756.28
2023-05-16T05:40:25.723Z,101764.13
2023-05-16T05:45:31.912Z,101761.66
2023-05-16T05:50:34.160Z,101756.22
2023-05-16T05:55:41.781Z,101761.06
2023-05-16T06:00:43.506Z,101766.66
2023-05-16T06:05:45.211Z,101759.56
2023-05-16T06:10:47.581Z,101764.91
2023-05-16T06:15:54.741Z,101775.78
2023-05-16T06:20:59.422Z,101793.75
2023-05-16T06:26:06.610Z,101798.41
2023-05-16T06:31:08.395Z,101785.13
2023-05-16T06:36:12.665Z,101788.66
2023-05-16T06:41:16.426Z,101789.78
2023-05-16T06:46:23.098Z,101806.56
2023-05-16T06:51:24.914Z,101801.31
2023-05-16T06:56:28.932Z,101808.69
2023-05-16T07:01:33.934Z,101802.28
2023-05-16T07:06:40.245Z,101811.66
2023-05-16T07:11:44.487Z,101810.81
2023-05-16T07:16:46.292Z,101817.81
2023-05-16T07:21:48.032Z,101828.94
2023-05-16T07:26:50.014Z,101830.63
2023-05-16T07:31:54.222Z,101836.16
2023-05-16T07:36:59.042Z,101844.66
2023-05-16T07:42:00.797Z,101844.56
2023-05-16T07:47:07.463Z,101840.66
2023-05-16T07:52:09.322Z,101835.09
2023-05-16T07:57:13.371Z,101841.84
2023-05-16T08:02:17.732Z,101839.56
2023-05-16T08:07:19.550Z,101856.53
2023-05-16T08:12:21.349Z,101856.84
2023-05-16T08:17:23.141Z,101851.16
2023-05-16T08:22:30.161Z,101862.25
2023-05-16T08:27:34.383Z,101869.66
2023-05-16T08:32:41.914Z,101868.53
2023-05-16T08:37:46.040Z,101860.63
2023-05-16T08:42:55.193Z,101868.34
2023-05-16T08:48:01.074Z,101894.09
2023-05-16T08:53:11.488Z,101895.78
2023-05-16T08:58:15.746Z,101897.47
2023-05-16T09:03:25.220Z,101885.94
2023-05-16T09:08:27.428Z,101875.56
2023-05-16T09:13:29.231Z,101885.66
2023-05-16T09:18:33.769Z,101886.47
2023-05-16T09:23:37.779Z,101897.25
2023-05-16T09:28:39.936Z,101892.06
2023-05-16T09:33:42.476Z,101890.31
2023-05-16T09:38:46.361Z,101895.19
2023-05-16T09:43:50.506Z,101899.19
2023-05-16T09:48:52.309Z,101887.94
2023-05-16T09:53:55.695Z,101901.44
2023-05-16T09:59:03.317Z,101900.63
2023-05-16T10:04:14.170Z,101901.59
2023-05-16T10:09:18.683Z,101916.72
2023-05-16T10:14:20.883Z,101900.50
2023-05-16T10:19:25.957Z,101895.75
2023-05-16T10:24:37.083Z,101908.34
2023-05-16T10:29:54.173Z,101899.84
2023-05-16T10:34:57.175Z,101910.84
2023-05-16T10:40:02.693Z,101906.69
2023-05-16T10:45:20.089Z,101904.13
2023-05-16T10:50:42.981Z,101910.03
2023-05-16T10:55:59.653Z,101915.22
2023-05-16T11:01:23.879Z,101900.75
2023-05-16T11:06:43.385Z,101883.88
2023-05-16T11:12:05.320Z,101909.44
2023-05-16T11:17:21.696Z,101901.59
2023-05-16T11:22:30.066Z,101907.34
2023-05-16T11:27:39.583Z,101905.31
2023-05-16T11:32:45.758Z,101905.59
2023-05-16T11:37:48.064Z,101915.03
2023-05-16T11:42:50.042Z,101921.03
2023-05-16T11:47:54.308Z,101926.56
2023-05-16T11:52:57.603Z,101908.69
2023-05-16T11:58:02.736Z,101910.72
2023-05-16T12:03:08.246Z,101927.38
2023-05-16T12:08:12.704Z,101914.41
2023-05-16T12:13:18.269Z,101919.84
2023-05-16T12:18:22.458Z,101933.34
2023-05-16T12:23:26.967Z,101935.44
2023-05-16T12:28:37.417Z,101938.84
2023-05-16T12:33:42.070Z,101930.41
2023-05-16T12:38:46.999Z,101935.34
2023-05-16T12:43:49.675Z,101941.09
2023-05-16T12:49:02.900Z,101950.59
2023-05-16T12:54:12.097Z,101934.91
2023-05-16T12:59:14.567Z,101938.53
2023-05-16T13:04:20.342Z,101943.53
2023-05-16T13:09:29.970Z,101957.81
2023-05-16T13:14:34.101Z,101956.97
2023-05-16T13:19:36.617Z,101945.44
2023-05-16T13:24:42.874Z,101926.19
2023-05-16T13:29:44.964Z,101945.91
2023-05-16T13:34:48.902Z,101938.47
2023-05-16T13:39:56.072Z,101944.63
2023-05-16T13:44:57.893Z,101944.00
2023-05-16T13:50:03.417Z,101932.13
2023-05-16T13:55:05.697Z,101960.50
2023-05-16T14:05:17.614Z,101971.78
2023-05-16T14:10:23.853Z,101953.88
2023-05-16T14:15:25.790Z,101969.28
2023-05-16T14:20:31.173Z,101963.00
2023-05-16T14:25:35.382Z,101985.66
2023-05-16T14:30:39.492Z,101953.94
2023-05-16T14:35:41.261Z,101964.91
2023-05-16T14:40:43.018Z,101962.03
2023-05-16T14:45:47.056Z,101965.78
2023-05-16T14:50:49.109Z,101955.09
2023-05-16T14:55:50.921Z,101951.38
2023-05-16T15:00:52.741Z,101968.78
2023-05-16T15:05:54.954Z,101958.69
2023-05-16T15:11:00.075Z,101942.97
2023-05-16T15:16:04.502Z,101962.72
2023-05-16T15:21:09.299Z,101966.25
2023-05-16T15:26:11.709Z,101979.69
2023-05-16T15:31:13.606Z,101983.03
2023-05-16T15:36:15.585Z,101994.38
2023-05-16T15:41:37.269Z,101981.03
2023-05-16T15:46:41.766Z,101982.91
2023-05-16T15:51:43.564Z,101986.22
2023-05-16T15:56:45.529Z,101992.81
2023-05-16T16:01:52.261Z,101991.13
2023-05-16T16:06:54.348Z,101998.47
2023-05-16T16:11:56.743Z,101994.75
2023-05-16T16:16:59.096Z,101992.06
2023-05-16T16:22:00.904Z,102013.53
2023-05-16T16:27:07.242Z,102014.44
2023-05-16T16:32:11.270Z,102009.59
2023-05-16T16:37:13.028Z,102000.63
2023-05-16T16:42:17.260Z,102010.59
2023-05-16T16:47:19.558Z,102020.09
2023-05-16T16:52:21.336Z,102007.84
2023-05-16T16:57:25.560Z,102008.88
2023-05-16T17:02:32.631Z,102009.88
2023-05-16T17:07:36.776Z,102020.69
2023-05-16T17:12:46.945Z,102021.72
2023-05-16T17:17:49.482Z,102020.63
2023-05-16T17:22:53.643Z,102033.63
2023-05-16T17:28:00.769Z,102036.22
2023-05-16T17:33:02.588Z,102034.91
2023-05-16T17:38:06.613Z,102028.09
2023-05-16T17:43:10.873Z,102042.72
2023-05-16T17:48:17.501Z,102045.88
2023-05-16T17:53:22.329Z,102048.53
2023-05-16T17:58:29.324Z,102050.00
2023-05-16T18:03:33.599Z,102062.28
2023-05-16T18:08:35.507Z,102050.31
2023-05-16T18:13:42.415Z,102045.59
2023-05-16T18:18:44.570Z,102061.81
2023-05-16T18:23:47.086Z,102055.34
2023-05-16T18:28:55.944Z,102061.47
2023-05-16T18:34:03.673Z,102062.13
2023-05-16T18:39:05.737Z,102070.38
2023-05-16T18:44:09.816Z,102078.75
2023-05-16T18:49:14.078Z,102075.06
2023-05-16T18:54:15.862Z,102083.28
2023-05-16T18:59:18.778Z,102087.13
2023-05-16T19:04:20.676Z,102106.47
2023-05-16T19:09:27.110Z,102103.53
2023-05-16T19:14:33.875Z,102103.50
2023-05-16T19:19:37.981Z,102105.31
2023-05-16T19:24:40.138Z,102115.31
2023-05-16T19:29:41.999Z,102125.50
2023-05-16T19:34:44.001Z,102126.34
2023-05-16T19:39:45.922Z,102137.25
2023-05-16T19:44:49.756Z,102127.34
2023-05-16T19:49:54.544Z,102139.00
2023-05-16T19:54:56.474Z,102131.75
2023-05-16T20:00:00.659Z,102138.75
2023-05-16T20:05:08.181Z,102126.50
2023-05-16T20:10:10.450Z,102129.66
2023-05-16T20:15:12.807Z,102141.16
2023-05-16T20:20:14.868Z,102135.22
2023-05-16T20:25:16.612Z,102133.03
2023-05-16T20:30:18.780Z,102135.00
2023-05-16T20:35:20.723Z,102133.50
2023-05-16T20:40:23.120Z,102128.75
2023-05-16T20:45:27.226Z,102130.38
2023-05-16T20:50:29.588Z,102129.47
2023-05-16T20:55:33.151Z,102138.66
2023-05-16T21:00:40.234Z,102129.47
2023-05-16T21:05:44.232Z,102134.44
2023-05-16T21:10:45.944Z,102137.97
2023-05-16T21:15:49.337Z,102135.44
2023-05-16T21:20:51.213Z,102136.41
2023-05-16T21:25:52.919Z,102134.53
2023-05-16T21:30:59.131Z,102129.09
2023-05-16T21:36:03.892Z,102132.22
2023-05-16T21:41:08.592Z,102136.91
2023-05-16T21:46:12.533Z,102141.78
2023-05-16T21:51:16.579Z,102151.19
2023-05-16T21:56:18.798Z,102144.69
2023-05-16T22:01:22.121Z,102152.13
2023-05-16T22:06:24.709Z,102154.25
2023-05-16T22:11:26.516Z,102151.88
2023-05-16T22:16:30.631Z,102139.88
2023-05-16T22:21:37.915Z,102148.69
2023-05-16T22:26:40.557Z,102149.19
2023-05-16T22:31:44.741Z,102159.78
2023-05-16T22:36:51.736Z,102162.69
2023-05-16T22:41:57.878Z,102170.38
2023-05-16T22:47:02.325Z,102179.78
2023-05-16T22:52:06.439Z,102172.75
2023-05-16T22:57:13.607Z,102171.66
2023-05-16T23:02:15.302Z,102179.84
2023-05-16T23:07:21.720Z,102173.56
2023-05-16T23:12:25.240Z,102175.63
2023-05-16T23:17:27.009Z,102190.66
2023-05-16T23:22:28.754Z,102185.53
2023-05-16T23:27:30.725Z,102192.78
2023-05-16T23:32:32.437Z,102192.88
2023-05-16T23:37:38.707Z,102193.59
2023-05-16T23:42:42.805Z,102196.78
2023-05-16T23:47:46.932Z,102190.06
2023-05-16T23:52:48.692Z,102191.53
2023-05-16T23:57:50.382Z,102192.75
